Time;durP1;ratioP1;P1;durP2;ratioP2;P2;SDS_P1;SDS_P2;PMS_P1;PMS_P2;Temp;Humidity;BMP_temperature;BMP_pressure;BME280_temperature;BME280_humidity;BME280_pressure;Samples;Min_cycle;Max_cycle;Signal;HPM_P1;HPM_P2
2023/05/25 00:00:19;;;;;;;16.82;13.00;;;;;;;17.04;81.40;100561.63;1777306;80;21840;-59
2023/05/25 00:03:29;;;;;;;17.95;12.50;;;;;;;17.04;81.39;100551.09;1784546;80;21335;-60
2023/05/25 00:06:36;;;;;;;17.73;11.88;;;;;;;17.01;81.43;100551.52;1784476;80;21327;-59
2023/05/25 00:09:43;;;;;;;20.23;12.68;;;;;;;17.00;81.55;100556.75;1784541;80;21855;-59
2023/05/25 00:12:50;;;;;;;19.30;12.70;;;;;;;17.00;81.62;100558.13;1784574;80;21334;-58
2023/05/25 00:15:55;;;;;;;21.77;13.08;;;;;;;16.98;81.70;100555.55;1784577;80;22952;-59
2023/05/25 00:19:02;;;;;;;21.40;12.47;;;;;;;16.98;81.77;100550.56;1784462;80;21409;-59
2023/05/25 00:22:09;;;;;;;20.90;13.32;;;;;;;16.99;81.90;100550.88;1784963;80;21331;-60
2023/05/25 00:25:17;;;;;;;18.50;13.40;;;;;;;17.01;81.98;100554.29;1784572;80;21362;-59
2023/05/25 00:28:23;;;;;;;18.98;13.28;;;;;;;17.00;82.00;100551.21;1784647;79;21374;-60
2023/05/25 00:31:35;;;;;;;17.50;13.55;;;;;;;16.99;82.00;100556.41;1784988;80;21878;-59
2023/05/25 00:34:38;;;;;;;19.87;13.03;;;;;;;16.98;82.07;100563.84;1785083;80;21342;-59
2023/05/25 00:37:46;;;;;;;19.23;14.33;;;;;;;16.95;82.01;100562.06;1784632;79;21350;-60
2023/05/25 00:40:53;;;;;;;21.42;13.28;;;;;;;16.94;82.07;100563.97;1784382;80;21342;-60
2023/05/25 00:43:59;;;;;;;20.88;14.00;;;;;;;16.93;82.10;100569.70;1784583;80;21839;-59
2023/05/25 00:47:05;;;;;;;21.02;15.58;;;;;;;16.90;82.09;100559.08;1784454;80;21374;-59
2023/05/25 00:50:12;;;;;;;20.50;14.45;;;;;;;16.88;82.04;100556.52;1784578;80;21371;-60
2023/05/25 00:53:19;;;;;;;21.73;14.53;;;;;;;16.85;82.13;100561.09;1785025;80;21335;-59
2023/05/25 00:56:27;;;;;;;21.55;15.30;;;;;;;16.85;82.23;100564.39;1784497;80;21378;-59
2023/05/25 00:59:55;;;;;;;25.85;16.48;;;;;;;16.83;82.29;100562.36;1785002;80;21352;-59
2023/05/25 01:03:01;;;;;;;21.20;15.43;;;;;;;16.82;82.36;100560.14;1769100;80;21895;-60
2023/05/25 01:06:09;;;;;;;21.07;15.25;;;;;;;16.81;82.38;100557.04;1768820;80;21344;-60
2023/05/25 01:09:17;;;;;;;19.92;15.55;;;;;;;16.81;82.45;100550.68;1769516;80;21958;-60
2023/05/25 01:12:22;;;;;;;24.87;16.80;;;;;;;16.81;82.50;100546.53;1769824;80;21840;-60
2023/05/25 01:15:30;;;;;;;24.20;16.90;;;;;;;16.81;82.55;100549.30;1768674;80;21323;-60
2023/05/25 01:18:36;;;;;;;22.05;16.00;;;;;;;16.81;82.59;100548.74;1768145;80;21462;-60
2023/05/25 01:21:53;;;;;;;24.30;16.60;;;;;;;16.81;82.63;100552.89;1768112;80;21343;-60
2023/05/25 01:25:09;;;;;;;27.80;17.55;;;;;;;16.82;82.67;100550.47;1760490;81;21355;-60
2023/05/25 01:28:19;;;;;;;24.77;17.00;;;;;;;16.85;82.73;100559.72;1768327;80;21390;-60
2023/05/25 01:31:28;;;;;;;29.27;17.15;;;;;;;16.86;82.80;100557.26;1768193;80;21398;-61
2023/05/25 01:34:36;;;;;;;25.27;16.85;;;;;;;16.87;82.88;100554.80;1768261;80;21328;-60
2023/05/25 01:37:38;;;;;;;25.25;16.95;;;;;;;16.88;82.93;100559.29;1767979;81;21804;-60
2023/05/25 01:40:43;;;;;;;26.20;18.10;;;;;;;16.89;82.96;100564.27;1768140;80;21386;-59
2023/05/25 01:43:50;;;;;;;22.45;17.45;;;;;;;16.91;83.09;100564.39;1768185;80;21347;-59
2023/05/25 01:47:00;;;;;;;24.72;16.75;;;;;;;16.95;83.17;100564.83;1768396;80;21368;-60
2023/05/25 01:50:32;;;;;;;27.77;17.45;;;;;;;16.96;83.21;100563.75;1768218;80;21398;-59
2023/05/25 01:53:54;;;;;;;20.40;15.72;;;;;;;16.98;83.25;100564.39;1766012;79;21328;-60
2023/05/25 01:57:01;;;;;;;23.80;17.52;;;;;;;16.96;83.26;100557.70;1768065;80;21323;-60
2023/05/25 02:00:08;;;;;;;24.15;18.25;;;;;;;16.97;83.26;100555.77;1768152;80;21335;-60
2023/05/25 02:03:16;;;;;;;26.42;17.15;;;;;;;16.98;83.27;100556.09;1772575;79;21383;-60
2023/05/25 02:06:22;;;;;;;25.10;18.10;;;;;;;17.00;83.35;100555.36;1778619;80;21961;-60
2023/05/25 02:09:30;;;;;;;23.90;17.40;;;;;;;17.02;83.41;100560.13;1778600;80;21367;-59
2023/05/25 02:12:36;;;;;;;27.70;17.60;;;;;;;17.01;83.39;100560.69;1778634;80;21378;-59
2023/05/25 02:15:44;;;;;;;23.98;17.87;;;;;;;17.01;83.35;100557.91;1778591;80;21323;-59
2023/05/25 02:18:49;;;;;;;30.62;18.55;;;;;;;17.01;83.36;100558.44;1778585;80;21386;-59
2023/05/25 02:21:55;;;;;;;23.67;17.65;;;;;;;17.02;83.37;100566.52;1778736;80;21332;-60
2023/05/25 02:25:00;;;;;;;22.67;17.55;;;;;;;17.02;83.28;100567.04;1778921;79;21331;-59
2023/05/25 02:28:06;;;;;;;24.23;17.17;;;;;;;17.00;83.35;100569.19;1778598;80;21374;-60
2023/05/25 02:31:13;;;;;;;26.90;18.65;;;;;;;17.01;83.38;100565.35;1778582;79;21898;-61
2023/05/25 02:34:18;;;;;;;25.48;17.75;;;;;;;17.01;83.36;100573.13;1778972;79;21362;-59
2023/05/25 02:37:24;;;;;;;29.32;18.30;;;;;;;17.03;83.44;100566.00;1778645;80;21327;-60
2023/05/25 02:40:30;;;;;;;27.15;18.17;;;;;;;17.04;83.44;100566.30;1758641;80;21425;-60
2023/05/25 02:43:36;;;;;;;25.00;17.23;;;;;;;17.04;83.42;100574.60;1778600;80;21334;-61
2023/05/25 02:46:42;;;;;;;25.55;18.37;;;;;;;17.03;83.47;100569.59;1778630;80;21308;-60
2023/05/25 02:49:49;;;;;;;26.20;18.42;;;;;;;17.03;83.51;100570.15;1778549;80;21343;-59
2023/05/25 02:52:58;;;;;;;24.55;18.12;;;;;;;17.05;83.55;100572.14;1778668;80;21327;-59
2023/05/25 02:56:05;;;;;;;28.83;18.73;;;;;;;17.06;83.64;100566.95;1778614;80;22082;-60
2023/05/25 02:59:12;;;;;;;26.25;17.80;;;;;;;17.07;83.69;100568.13;1778580;80;21323;-60
2023/05/25 03:02:19;;;;;;;25.08;18.17;;;;;;;17.10;83.70;100564.92;1778518;80;21830;-59
2023/05/25 03:05:27;;;;;;;26.55;18.87;;;;;;;17.10;83.65;100568.21;1778371;79;21883;-60
2023/05/25 03:08:32;;;;;;;28.23;18.62;;;;;;;17.12;83.79;100569.72;1778595;80;21343;-60
2023/05/25 03:11:40;;;;;;;24.25;17.92;;;;;;;17.16;83.86;100568.73;1778616;80;21335;-59
2023/05/25 03:14:46;;;;;;;26.95;18.77;;;;;;;17.20;83.94;100566.73;1778512;80;21872;-60
2023/05/25 03:17:55;;;;;;;24.85;17.70;;;;;;;17.22;83.88;100569.29;1778547;80;21903;-60
2023/05/25 03:21:01;;;;;;;25.70;18.80;;;;;;;17.24;83.88;100568.00;1778688;80;21212;-59
2023/05/25 03:24:07;;;;;;;26.85;18.42;;;;;;;17.25;83.78;100573.83;1778751;80;21862;-60
2023/05/25 03:27:14;;;;;;;27.10;18.85;;;;;;;17.27;83.84;100575.00;1778586;80;21848;-60
2023/05/25 03:30:21;;;;;;;27.75;17.90;;;;;;;17.31;83.87;100578.54;1778614;80;21335;-60
2023/05/25 03:33:26;;;;;;;28.73;18.98;;;;;;;17.35;83.93;100591.39;1778643;80;21359;-59
2023/05/25 03:36:34;;;;;;;27.22;18.10;;;;;;;17.38;83.96;100592.34;1778673;80;21898;-59
2023/05/25 03:39:41;;;;;;;25.77;19.40;;;;;;;17.43;84.08;100587.02;1778688;80;21397;-60
2023/05/25 03:42:47;;;;;;;26.93;18.52;;;;;;;17.45;84.02;100587.69;1778678;80;21911;-60
2023/05/25 03:45:54;;;;;;;24.15;18.75;;;;;;;17.45;83.86;100587.69;1779058;80;21315;-60
2023/05/25 03:49:00;;;;;;;28.23;18.62;;;;;;;17.46;83.96;100594.40;1778613;80;21886;-60
2023/05/25 03:52:07;;;;;;;28.40;18.37;;;;;;;17.51;84.13;100598.76;1778896;80;21323;-61
2023/05/25 03:55:15;;;;;;;24.63;18.35;;;;;;;17.56;84.29;100592.57;1778812;80;21346;-61
2023/05/25 03:58:23;;;;;;;28.85;17.73;;;;;;;17.60;84.34;100590.53;1778875;80;21347;-60
2023/05/25 04:01:29;;;;;;;27.02;17.48;;;;;;;17.62;84.22;100588.41;1778664;80;21898;-61
2023/05/25 04:04:34;;;;;;;24.12;18.48;;;;;;;17.62;84.21;100583.39;1778485;80;21331;-60
2023/05/25 04:07:41;;;;;;;26.55;17.05;;;;;;;17.65;84.25;100592.13;1768149;80;21813;-60
2023/05/25 04:10:48;;;;;;;26.62;18.40;;;;;;;17.68;84.20;100596.36;1768529;80;21229;-60
2023/05/25 04:13:55;;;;;;;25.02;19.00;;;;;;;17.69;84.17;100599.47;1768193;80;21339;-60
2023/05/25 04:17:02;;;;;;;25.95;18.40;;;;;;;17.71;84.22;100597.34;1769350;80;21343;-60
2023/05/25 04:20:10;;;;;;;26.93;18.92;;;;;;;17.73;84.25;100597.44;1769448;80;21367;-60
2023/05/25 04:23:18;;;;;;;26.85;18.98;;;;;;;17.75;84.28;100601.37;1768328;80;21371;-59
2023/05/25 04:26:27;;;;;;;26.68;19.00;;;;;;;17.75;84.25;100604.14;1767957;81;21378;-59
2023/05/25 04:29:33;;;;;;;27.13;19.77;;;;;;;17.74;84.15;100609.38;1767982;80;21276;-59
2023/05/25 04:32:44;;;;;;;27.35;18.77;;;;;;;17.75;84.19;100611.06;1757017;80;21324;-59
2023/05/25 04:35:53;;;;;;;27.37;19.48;;;;;;;17.76;84.18;100613.61;1766956;80;21359;-59
2023/05/25 04:39:03;;;;;;;24.07;18.55;;;;;;;17.76;84.16;100616.37;1788381;79;21178;-60
2023/05/25 04:42:08;;;;;;;26.00;19.15;;;;;;;17.78;84.21;100613.39;1768619;81;21724;-59
2023/05/25 04:45:20;;;;;;;30.20;18.95;;;;;;;17.81;84.38;100617.11;1771345;80;21915;-60
2023/05/25 04:48:31;;;;;;;27.67;19.35;;;;;;;17.84;84.48;100611.13;1750760;79;22010;-60
2023/05/25 04:51:37;;;;;;;27.85;18.85;;;;;;;17.87;84.51;100613.47;1793621;78;21200;-60
2023/05/25 04:54:43;;;;;;;28.60;18.98;;;;;;;17.87;84.44;100608.78;1789505;79;21216;-60
2023/05/25 04:57:52;;;;;;;33.70;18.37;;;;;;;17.87;84.35;100612.94;1784944;79;21840;-59
2023/05/25 05:00:59;;;;;;;30.45;19.50;;;;;;;17.90;84.50;100614.45;1782817;79;21788;-59
2023/05/25 05:04:05;;;;;;;27.62;19.80;;;;;;;17.94;84.62;100619.85;1803673;78;21378;-60
2023/05/25 05:07:13;;;;;;;25.55;20.08;;;;;;;17.98;84.72;100625.81;1807189;77;21218;-58
2023/05/25 05:10:20;;;;;;;27.77;20.12;;;;;;;18.00;84.77;100620.36;1808444;77;21263;-60
2023/05/25 05:13:29;;;;;;;31.82;22.10;;;;;;;18.02;84.69;100622.38;1802886;78;21342;-60
2023/05/25 05:16:39;;;;;;;29.70;20.10;;;;;;;18.04;84.67;100629.95;1805750;79;21354;-61
2023/05/25 05:19:45;;;;;;;34.70;22.45;;;;;;;18.04;84.63;100632.72;1779092;78;21405;-61
2023/05/25 05:22:53;;;;;;;29.30;21.35;;;;;;;18.05;84.60;100635.80;1786823;79;21351;-60
2023/05/25 05:26:03;;;;;;;31.55;21.52;;;;;;;18.04;84.57;100639.65;1794738;79;21583;-60
2023/05/25 05:29:11;;;;;;;31.33;20.75;;;;;;;18.04;84.59;100638.27;1795989;79;21846;-61
2023/05/25 05:32:18;;;;;;;29.72;21.55;;;;;;;18.02;84.43;100640.39;1806255;79;21455;-61
2023/05/25 05:35:24;;;;;;;27.32;19.85;;;;;;;18.00;84.41;100645.85;1805742;78;21366;-59
2023/05/25 05:38:34;;;;;;;30.43;20.25;;;;;;;17.99;84.42;100642.74;1804769;79;21354;-61
2023/05/25 05:41:42;;;;;;;28.42;19.12;;;;;;;17.98;84.41;100652.13;1811199;78;21338;-61
2023/05/25 05:44:48;;;;;;;29.05;20.23;;;;;;;17.97;84.47;100647.12;1804475;79;21358;-60
2023/05/25 05:47:57;;;;;;;32.58;20.12;;;;;;;17.98;84.59;100642.44;1795273;79;21729;-60
2023/05/25 05:51:03;;;;;;;27.85;19.98;;;;;;;18.02;84.86;100650.62;1788334;79;21267;-60
2023/05/25 05:54:10;;;;;;;32.63;21.02;;;;;;;18.03;84.91;100649.02;1792023;78;21456;-63
2023/05/25 05:57:29;;;;;;;32.08;23.67;;;;;;;18.04;84.89;100645.19;1793255;79;21860;-60
2023/05/25 06:00:39;;;;;;;26.30;19.98;;;;;;;18.10;85.09;100643.45;1796288;78;21347;-61
2023/05/25 06:03:47;;;;;;;31.48;19.55;;;;;;;18.15;85.19;100650.05;1798980;79;21377;-61
2023/05/25 06:06:54;;;;;;;27.62;20.32;;;;;;;18.19;85.28;100647.15;1805232;79;21452;-62
2023/05/25 06:10:02;;;;;;;25.68;19.55;;;;;;;18.26;85.40;100644.36;1766927;79;21248;-61
2023/05/25 06:13:14;;;;;;;29.50;20.92;;;;;;;18.31;85.45;100645.42;1742674;81;21919;-61
2023/05/25 06:16:23;;;;;;;28.75;21.35;;;;;;;18.36;85.47;100639.21;1763707;79;21735;-61
2023/05/25 06:19:29;;;;;;;25.92;19.82;;;;;;;18.39;85.53;100642.43;1734433;80;22214;-63
2023/05/25 06:22:38;;;;;;;27.32;20.10;;;;;;;18.42;85.59;100641.98;1747020;80;21216;-57
2023/05/25 06:25:45;;;;;;;26.30;18.75;;;;;;;18.45;85.53;100647.62;1751164;81;21538;-61
2023/05/25 06:28:52;;;;;;;29.18;20.20;;;;;;;18.49;85.45;100655.27;1759318;80;21198;-62
2023/05/25 06:31:59;;;;;;;26.57;19.10;;;;;;;18.54;85.50;100657.37;1767002;80;21210;-61
2023/05/25 06:35:08;;;;;;;26.00;18.62;;;;;;;18.59;85.53;100657.56;1737663;81;21626;-62
2023/05/25 06:38:14;;;;;;;27.25;17.82;;;;;;;18.64;85.53;100666.08;1765940;79;21213;-60
2023/05/25 06:41:22;;;;;;;26.42;18.57;;;;;;;18.65;85.44;100664.47;1763311;79;21249;-60
2023/05/25 06:44:28;;;;;;;24.18;17.23;;;;;;;18.68;85.49;100661.80;1752149;80;21854;-62
2023/05/25 06:47:33;;;;;;;23.77;16.90;;;;;;;18.69;85.42;100665.75;1739120;81;21393;-61
2023/05/25 06:50:41;;;;;;;25.43;17.10;;;;;;;18.71;85.54;100664.97;1756537;79;21665;-64
2023/05/25 06:53:49;;;;;;;23.52;17.02;;;;;;;18.79;85.61;100668.04;1749218;79;21228;-62
2023/05/25 06:56:55;;;;;;;26.82;17.87;;;;;;;18.82;85.57;100673.14;1741001;80;21359;-62
2023/05/25 07:00:03;;;;;;;19.10;14.98;;;;;;;18.86;85.66;100675.24;1747346;80;21217;-61
2023/05/25 07:03:10;;;;;;;23.12;16.30;;;;;;;18.88;85.56;100681.95;1749257;80;21178;-61
2023/05/25 07:06:15;;;;;;;22.05;14.90;;;;;;;18.89;85.49;100678.09;1737229;81;21359;-61
2023/05/25 07:09:23;;;;;;;21.82;15.60;;;;;;;18.86;85.24;100679.41;1763064;79;21296;-65
2023/05/25 07:12:33;;;;;;;13.98;10.58;;;;;;;18.89;85.33;100683.64;1782714;80;21240;-62
2023/05/25 07:15:40;;;;;;;15.00;9.95;;;;;;;18.92;85.34;100680.42;1782521;79;21201;-67
2023/05/25 07:18:50;;;;;;;16.87;10.85;;;;;;;18.88;85.08;100682.81;1781386;79;21185;-62
2023/05/25 07:21:58;;;;;;;15.40;10.10;;;;;;;18.91;85.19;100678.73;1789346;79;21347;-61
2023/05/25 07:25:05;;;;;;;16.97;10.85;;;;;;;18.96;85.29;100688.07;1792522;78;21315;-60
2023/05/25 07:28:17;;;;;;;17.35;10.48;;;;;;;19.00;85.19;100690.73;1785304;79;21361;-65
2023/05/25 07:31:27;;;;;;;14.60;9.55;;;;;;;18.97;84.93;100691.19;1784890;79;21467;-61
2023/05/25 07:34:34;;;;;;;14.55;9.28;;;;;;;18.99;85.10;100693.20;1775913;79;21220;-63
2023/05/25 07:37:44;;;;;;;18.48;10.58;;;;;;;19.00;85.05;100687.95;1786569;79;21895;-61
2023/05/25 07:40:52;;;;;;;16.20;10.35;;;;;;;18.95;84.87;100694.70;1790211;78;21934;-60
2023/05/25 07:43:59;;;;;;;16.73;10.50;;;;;;;18.89;84.75;100687.28;1788454;79;21401;-60
2023/05/25 07:47:06;;;;;;;16.80;11.10;;;;;;;18.88;84.79;100693.91;1787030;79;21200;-62
2023/05/25 07:50:12;;;;;;;18.35;10.58;;;;;;;18.92;84.94;100696.55;1788005;78;21784;-61
2023/05/25 07:53:20;;;;;;;17.40;11.08;;;;;;;18.97;85.13;100698.12;1773414;79;21846;-61
2023/05/25 07:56:25;;;;;;;16.82;11.00;;;;;;;19.02;85.21;100702.47;1790823;78;21359;-63
2023/05/25 07:59:34;;;;;;;13.43;9.93;;;;;;;19.07;85.33;100698.49;1793589;78;21471;-60
2023/05/25 08:02:40;;;;;;;15.03;11.10;;;;;;;19.11;85.23;100702.51;1794376;79;22001;-61
2023/05/25 08:05:47;;;;;;;16.70;9.68;;;;;;;19.14;85.28;100700.67;1792203;78;21358;-62
2023/05/25 08:08:53;;;;;;;14.18;10.28;;;;;;;19.20;85.33;100702.55;1795377;79;21426;-61
2023/05/25 08:12:01;;;;;;;13.85;9.80;;;;;;;19.27;85.47;100699.20;1789696;79;21554;-61
2023/05/25 08:15:12;;;;;;;14.18;10.30;;;;;;;19.34;85.50;100696.41;1794533;78;21264;-60
2023/05/25 08:18:18;;;;;;;15.40;9.83;;;;;;;19.39;85.37;100693.81;1798526;79;21260;-61
2023/05/25 08:21:25;;;;;;;16.45;9.53;;;;;;;19.43;85.26;100693.66;1789975;78;21210;-61
2023/05/25 08:24:33;;;;;;;15.48;9.63;;;;;;;19.47;85.26;100684.34;1778116;79;21222;-61
2023/05/25 08:27:40;;;;;;;15.30;9.18;;;;;;;19.55;85.32;100692.41;1785201;79;21329;-61
2023/05/25 08:30:48;;;;;;;12.82;9.43;;;;;;;19.64;85.41;100691.03;1747253;80;21370;-59
2023/05/25 08:33:57;;;;;;;12.47;7.62;;;;;;;19.69;85.23;100685.65;1789423;79;21196;-61
2023/05/25 08:37:04;;;;;;;12.82;8.15;;;;;;;19.74;85.06;100688.59;1791577;79;21324;-61
2023/05/25 08:40:16;;;;;;;13.20;8.33;;;;;;;19.78;84.94;100690.69;1792943;78;21366;-64
2023/05/25 08:43:26;;;;;;;12.13;7.53;;;;;;;19.86;84.96;100702.05;1782454;79;21399;-63
2023/05/25 08:46:37;;;;;;;13.58;7.85;;;;;;;19.91;84.69;100695.27;1794541;79;21212;-62
2023/05/25 08:49:46;;;;;;;16.27;8.10;;;;;;;19.97;84.67;100697.13;1781842;78;21429;-62
2023/05/25 08:52:53;;;;;;;14.90;7.83;;;;;;;20.07;84.66;100695.54;1790907;78;21212;-60
2023/05/25 08:56:01;;;;;;;10.35;7.30;;;;;;;20.17;84.64;100687.53;1778620;79;21259;-60
2023/05/25 08:59:31;;;;;;;15.43;7.72;;;;;;;20.28;84.64;100689.54;1784352;79;21200;-61
2023/05/25 09:03:01;;;;;;;11.53;8.03;;;;;;;20.41;84.59;100688.00;1776413;78;21229;-58
2023/05/25 09:06:09;;;;;;;10.05;7.22;;;;;;;20.58;84.51;100697.97;1767863;79;21727;-59
2023/05/25 09:09:15;;;;;;;9.70;7.03;;;;;;;20.73;84.29;100696.48;1752066;79;21349;-60
2023/05/25 09:12:22;;;;;;;9.93;6.37;;;;;;;20.91;84.17;100701.16;1780739;79;21210;-60
2023/05/25 09:15:29;;;;;;;11.75;6.80;;;;;;;21.03;83.84;100699.30;1783401;79;21704;-60
2023/05/25 09:18:36;;;;;;;14.50;6.83;;;;;;;21.15;83.66;100695.18;1800892;79;21262;-60
2023/05/25 09:21:42;;;;;;;14.35;7.20;;;;;;;21.21;83.36;100699.79;1814238;79;21343;-55
2023/05/25 09:24:52;;;;;;;9.95;6.97;;;;;;;21.30;83.28;100700.61;1814396;79;21255;-55
2023/05/25 09:27:59;;;;;;;13.55;7.37;;;;;;;21.38;83.22;100694.70;1814668;79;21653;-55
2023/05/25 09:31:07;;;;;;;12.58;7.83;;;;;;;21.47;83.21;100695.22;1810509;77;21366;-56
2023/05/25 09:34:19;;;;;;;14.70;7.75;;;;;;;21.58;83.22;100691.60;1804200;79;21366;-56
2023/05/25 09:37:27;;;;;;;12.80;7.85;;;;;;;21.65;83.25;100688.14;1806971;77;21203;-56
2023/05/25 09:40:33;;;;;;;11.12;7.20;;;;;;;21.70;83.01;100687.73;1816455;77;21373;-55
2023/05/25 09:43:40;;;;;;;10.88;7.55;;;;;;;21.78;83.00;100697.17;1803078;77;21354;-57
2023/05/25 09:46:48;;;;;;;13.50;7.83;;;;;;;21.89;83.09;100690.75;1804032;77;21353;-57
2023/05/25 09:49:55;;;;;;;12.13;7.25;;;;;;;22.02;83.09;100689.09;1801981;78;21357;-56
2023/05/25 09:53:07;;;;;;;10.63;7.00;;;;;;;22.13;83.04;100694.38;1813996;79;21339;-56
2023/05/25 09:56:16;;;;;;;8.43;6.30;;;;;;;22.26;83.01;100691.89;1804611;78;21398;-57
2023/05/25 09:59:32;;;;;;;11.50;6.95;;;;;;;22.39;82.75;100684.66;1805801;77;21485;-56
2023/05/25 10:02:38;;;;;;;13.88;6.90;;;;;;;22.50;82.64;100687.97;1776579;79;21448;-56
2023/05/25 10:05:55;;;;;;;10.45;6.60;;;;;;;22.61;82.42;100679.58;1808482;77;21405;-54
2023/05/25 10:09:04;;;;;;;9.95;6.28;;;;;;;22.71;82.20;100681.73;1806674;79;21203;-56
2023/05/25 10:12:10;;;;;;;11.85;6.97;;;;;;;22.88;82.17;100674.29;1801239;79;21859;-54
2023/05/25 10:15:19;;;;;;;10.23;6.40;;;;;;;22.99;81.93;100677.58;1792647;79;21282;-53
2023/05/25 10:18:25;;;;;;;12.20;7.85;;;;;;;23.07;81.65;100668.80;1792518;79;21504;-57
2023/05/25 10:21:32;;;;;;;10.35;6.65;;;;;;;23.15;81.41;100677.61;1798953;78;21223;-56
2023/05/25 10:25:05;;;;;;;12.25;6.35;;;;;;;23.22;81.37;100669.93;1791222;79;22026;-57
2023/05/25 10:28:28;;;;;;;14.23;8.15;;;;;;;23.25;80.98;100658.78;1801256;79;21378;-55
2023/05/25 10:31:33;;;;;;;10.25;7.25;;;;;;;23.22;80.68;100653.17;1794165;78;21361;-55
2023/05/25 10:34:45;;;;;;;11.95;6.47;;;;;;;23.32;80.90;100660.91;1799049;78;21253;-53
2023/05/25 10:37:51;;;;;;;10.80;7.37;;;;;;;23.34;80.86;100658.73;1799088;79;21880;-62
2023/05/25 10:41:00;;;;;;;12.10;8.13;;;;;;;23.24;80.24;100649.58;1805570;79;21874;-63
2023/05/25 10:44:10;;;;;;;10.18;7.33;;;;;;;23.04;80.07;100645.00;1795749;78;21350;-62
2023/05/25 10:47:16;;;;;;;9.50;6.92;;;;;;;23.00;80.42;100648.55;1802935;79;21803;-59
2023/05/25 10:50:30;;;;;;;9.90;6.37;;;;;;;22.83;80.32;100643.47;1799305;78;21417;-59
2023/05/25 10:53:37;;;;;;;9.00;5.97;;;;;;;22.57;80.38;100650.48;1786801;78;22001;-57
2023/05/25 10:56:44;;;;;;;6.78;4.53;;;;;;;22.38;80.68;100643.34;1795756;79;21299;-59
2023/05/25 11:00:00;;;;;;;7.53;4.90;;;;;;;22.38;80.97;100632.72;1803748;78;21849;-61
2023/05/25 11:03:09;;;;;;;6.20;3.80;;;;;;;22.34;80.72;100631.53;1804156;79;21404;-61
2023/05/25 11:06:23;;;;;;;3.47;2.40;;;;;;;22.36;80.93;100625.16;1783491;78;21184;-61
2023/05/25 11:09:37;;;;;;;9.03;2.67;;;;;;;22.43;80.92;100623.06;1797670;78;21345;-62
2023/05/25 11:12:46;;;;;;;5.67;3.22;;;;;;;22.48;80.87;100629.62;1785689;78;21365;-62
2023/05/25 11:15:54;;;;;;;6.30;3.85;;;;;;;22.49;80.62;100624.33;1774404;78;21569;-61
2023/05/25 11:19:05;;;;;;;6.33;4.25;;;;;;;22.47;80.60;100620.92;1797880;78;21729;-60
2023/05/25 11:22:20;;;;;;;9.73;5.75;;;;;;;22.64;81.17;100619.10;1777822;79;21732;-63
2023/05/25 11:25:45;;;;;;;8.50;5.83;;;;;;;22.92;81.55;100615.44;1795334;79;21388;-63
2023/05/25 11:28:54;;;;;;;9.93;6.35;;;;;;;23.10;81.54;100615.23;1794290;79;21848;-61
2023/05/25 11:32:02;;;;;;;8.45;6.35;;;;;;;23.23;81.75;100607.36;1805389;78;21200;-61
2023/05/25 11:35:08;;;;;;;8.60;6.50;;;;;;;23.48;81.87;100597.20;1751927;81;21252;-62
2023/05/25 11:38:14;;;;;;;8.65;6.42;;;;;;;23.68;81.81;100602.25;1792121;79;21971;-62
2023/05/25 11:41:25;;;;;;;9.93;5.80;;;;;;;23.80;81.47;100585.66;1796820;78;21468;-62
2023/05/25 11:44:37;;;;;;;10.05;6.47;;;;;;;23.75;80.85;100588.41;1800539;78;21382;-61
2023/05/25 11:47:46;;;;;;;10.25;6.42;;;;;;;23.78;80.82;100579.50;1799586;78;21878;-63
2023/05/25 11:50:52;;;;;;;7.92;6.20;;;;;;;23.63;80.11;100587.65;1772762;79;21248;-63
2023/05/25 11:53:58;;;;;;;6.87;5.40;;;;;;;23.21;79.54;100588.59;1798065;79;21355;-61
2023/05/25 11:57:04;;;;;;;7.75;5.40;;;;;;;23.11;80.07;100582.00;1804729;79;21716;-61
2023/05/25 12:00:12;;;;;;;7.03;5.10;;;;;;;23.16;80.44;100586.28;1790677;78;21171;-60
2023/05/25 12:03:37;;;;;;;9.25;5.80;;;;;;;23.29;80.76;100584.59;1804599;79;21362;-60
2023/05/25 12:06:46;;;;;;;8.48;5.70;;;;;;;23.30;80.43;100577.89;1785984;78;21235;-61
2023/05/25 12:09:53;;;;;;;12.23;7.05;;;;;;;23.41;80.60;100563.84;1772864;79;21866;-64
2023/05/25 12:13:03;;;;;;;13.03;6.53;;;;;;;23.57;80.72;100566.31;1787175;79;21295;-62
2023/05/25 12:16:09;;;;;;;11.70;6.50;;;;;;;23.66;80.25;100562.55;1757606;80;21544;-60
2023/05/25 12:19:16;;;;;;;7.83;6.12;;;;;;;23.69;80.14;100564.25;1762940;80;21243;-61
2023/05/25 12:22:23;;;;;;;9.85;6.45;;;;;;;23.85;80.34;100558.35;1751663;79;21216;-60
2023/05/25 12:25:28;;;;;;;11.90;6.42;;;;;;;23.96;80.06;100554.59;1748402;79;21236;-58
2023/05/25 12:28:36;;;;;;;10.05;6.72;;;;;;;23.97;79.72;100553.51;1762212;81;21192;-56
2023/05/25 12:31:43;;;;;;;8.65;6.78;;;;;;;24.10;79.75;100551.16;1748687;79;21235;-58
2023/05/25 12:34:50;;;;;;;7.87;6.28;;;;;;;24.13;79.32;100552.06;1690723;82;21275;-58
2023/05/25 12:37:57;;;;;;;9.50;6.67;;;;;;;24.17;79.40;100553.22;1681658;84;21255;-58
2023/05/25 12:41:13;;;;;;;11.28;6.22;;;;;;;24.29;79.36;100546.92;1683680;83;21252;-58
2023/05/25 12:44:30;;;;;;;9.48;6.25;;;;;;;24.44;79.20;100544.86;1671374;85;21422;-59
2023/05/25 12:47:37;;;;;;;14.85;6.47;;;;;;;24.53;78.77;100541.91;1679781;82;21780;-58
2023/05/25 12:50:43;;;;;;;9.20;5.95;;;;;;;24.71;78.84;100541.56;1692510;84;21793;-57
2023/05/25 12:53:57;;;;;;;9.75;5.22;;;;;;;24.83;78.55;100541.69;1690911;84;21194;-57
2023/05/25 12:57:05;;;;;;;6.97;4.37;;;;;;;24.74;78.11;100531.23;1696049;84;21540;-58
2023/05/25 13:00:11;;;;;;;8.83;5.03;;;;;;;24.72;77.68;100534.30;1689470;82;21571;-59
2023/05/25 13:03:19;;;;;;;10.38;4.92;;;;;;;24.76;77.72;100532.67;1694493;84;21795;-57
2023/05/25 13:06:25;;;;;;;6.10;4.80;;;;;;;24.86;77.81;100529.95;1767395;79;21211;-59
2023/05/25 13:09:33;;;;;;;10.03;5.35;;;;;;;24.86;77.45;100534.16;1757552;79;21725;-58
2023/05/25 13:12:40;;;;;;;8.50;5.20;;;;;;;24.87;77.13;100526.05;1737770;81;21212;-57
2023/05/25 13:15:47;;;;;;;8.50;4.65;;;;;;;24.94;77.05;100522.47;1773392;78;21198;-58
2023/05/25 13:18:54;;;;;;;6.45;4.70;;;;;;;25.02;76.86;100524.78;1804823;77;21211;-57
2023/05/25 13:21:59;;;;;;;11.08;4.28;;;;;;;25.04;76.54;100518.36;1809747;77;21439;-57
2023/05/25 13:25:09;;;;;;;8.38;5.17;;;;;;;25.01;76.29;100511.89;1811632;77;21683;-58
2023/05/25 13:28:22;;;;;;;5.97;4.25;;;;;;;25.00;76.27;100515.82;1813976;79;21913;-57
2023/05/25 13:31:29;;;;;;;7.92;4.65;;;;;;;24.94;75.98;100518.27;1814686;77;21219;-58
2023/05/25 13:34:39;;;;;;;9.88;5.72;;;;;;;24.82;75.98;100510.60;1814500;77;21208;-59
2023/05/25 13:37:47;;;;;;;8.68;4.97;;;;;;;24.66;75.80;100514.36;1809474;78;21196;-57
2023/05/25 13:40:53;;;;;;;7.60;4.85;;;;;;;24.59;75.89;100518.45;1807259;79;21372;-58
2023/05/25 13:43:59;;;;;;;9.25;5.10;;;;;;;24.58;76.07;100512.00;1806465;79;21342;-58
2023/05/25 13:47:07;;;;;;;7.62;4.60;;;;;;;24.64;76.21;100510.94;1805034;79;21381;-58
2023/05/25 13:50:16;;;;;;;8.28;4.80;;;;;;;24.72;76.24;100513.30;1805281;79;21227;-58
2023/05/25 13:53:23;;;;;;;7.90;4.72;;;;;;;24.69;75.68;100518.03;1761069;81;21239;-58
2023/05/25 13:56:31;;;;;;;8.78;4.72;;;;;;;24.57;75.24;100513.12;1798149;78;21698;-57
2023/05/25 13:59:39;;;;;;;8.50;4.95;;;;;;;24.42;74.98;100506.52;1798402;78;21335;-58
2023/05/25 14:02:47;;;;;;;8.85;4.45;;;;;;;24.39;74.92;100504.22;1804586;77;21173;-57
2023/05/25 14:05:54;;;;;;;8.18;4.62;;;;;;;24.44;75.17;100504.28;1810708;77;21215;-57
2023/05/25 14:09:01;;;;;;;7.60;4.80;;;;;;;24.50;75.13;100506.88;1823168;78;21755;-58
2023/05/25 14:12:07;;;;;;;12.55;4.75;;;;;;;24.54;74.78;100508.59;1823691;78;21693;-59
2023/05/25 14:15:13;;;;;;;9.78;4.87;;;;;;;24.63;74.88;100507.00;1815055;77;21242;-59
2023/05/25 14:18:20;;;;;;;11.10;4.60;;;;;;;24.68;74.57;100500.09;1788637;79;21298;-59
2023/05/25 14:21:26;;;;;;;7.42;4.35;;;;;;;24.66;74.35;100500.87;1790251;79;21205;-60